Time;durP1;ratioP1;P1;durP2;ratioP2;P2;SDS_P1;SDS_P2;PMS_P1;PMS_P2;Temp;Humidity;BMP_temperature;BMP_pressure;BME280_temperature;BME280_humidity;BME280_pressure;Samples;Min_cycle;Max_cycle;Signal;HPM_P1;HPM_P2
2022/09/10 00:00:56;;;;;;;3.20;1.20;;;15.20;99.90;;;;;;4140021;28;20282;-79
2022/09/10 00:02:58;;;;;;;1.10;1.00;;;15.10;99.90;;;;;;4131753;28;20237;-79
2022/09/10 00:05:01;;;;;;;1.87;1.20;;;15.20;99.90;;;;;;4135500;28;20215;-79
2022/09/10 00:07:03;;;;;;;2.00;1.07;;;15.20;99.90;;;;;;4139649;28;20650;-79
2022/09/10 00:09:06;;;;;;;2.53;1.30;;;15.10;99.90;;;;;;4139856;28;20212;-80
2022/09/10 00:11:10;;;;;;;2.27;1.00;;;15.10;99.90;;;;;;4142361;28;20236;-79
2022/09/10 00:13:13;;;;;;;2.23;1.00;;;15.10;99.90;;;;;;4139046;28;20316;-80
2022/09/10 00:15:16;;;;;;;2.57;1.00;;;15.10;99.90;;;;;;4137808;28;20270;-79
2022/09/10 00:17:19;;;;;;;4.17;1.27;;;15.10;99.90;;;;;;4137368;28;20251;-80
2022/09/10 00:19:21;;;;;;;2.23;0.97;;;15.00;99.90;;;;;;4139031;28;20232;-79
2022/09/10 00:21:23;;;;;;;1.20;0.93;;;15.00;99.90;;;;;;4144321;28;20316;-79
2022/09/10 00:23:29;;;;;;;1.70;0.97;;;15.10;99.90;;;;;;4140367;28;20302;-80
2022/09/10 00:25:32;;;;;;;1.93;1.10;;;14.90;99.90;;;;;;4138238;28;20205;-80
2022/09/10 00:27:36;;;;;;;3.63;1.50;;;14.90;99.90;;;;;;4138960;28;20267;-79
2022/09/10 00:29:37;;;;;;;2.23;1.10;;;14.90;99.90;;;;;;4138803;28;20240;-79
2022/09/10 00:31:39;;;;;;;4.07;1.37;;;15.00;99.90;;;;;;4137216;28;20226;-79
2022/09/10 00:33:43;;;;;;;3.70;1.27;;;14.90;99.90;;;;;;4141532;28;20221;-79
2022/09/10 00:35:46;;;;;;;1.83;1.10;;;14.90;99.90;;;;;;4136848;28;20973;-79
2022/09/10 00:37:48;;;;;;;3.07;1.17;;;14.80;99.90;;;;;;4142474;28;20668;-79
2022/09/10 00:39:50;;;;;;;2.47;1.33;;;14.80;99.90;;;;;;4142435;28;20245;-79
2022/09/10 00:41:54;;;;;;;2.73;1.00;;;14.80;99.90;;;;;;4144846;28;20716;-78
2022/09/10 00:43:58;;;;;;;1.77;1.20;;;14.80;99.90;;;;;;4147078;28;20220;-78
2022/09/10 00:46:00;;;;;;;2.47;1.40;;;14.80;99.90;;;;;;4147333;28;20668;-79
2022/09/10 00:48:05;;;;;;;2.50;1.20;;;14.70;99.90;;;;;;4140772;28;20303;-78
2022/09/10 00:50:17;;;;;;;2.07;1.13;;;14.70;99.90;;;;;;4143663;28;20236;-78
2022/09/10 00:52:19;;;;;;;2.07;1.30;;;14.70;99.90;;;;;;4147362;28;20290;-78
2022/09/10 00:54:27;;;;;;;3.73;1.27;;;14.60;99.90;;;;;;4138287;28;20208;-78
2022/09/10 00:56:29;;;;;;;2.27;1.33;;;14.60;99.90;;;;;;4141694;28;20599;-78
2022/09/10 00:58:32;;;;;;;2.87;1.10;;;14.60;99.90;;;;;;4130760;28;20217;-78
2022/09/10 01:00:34;;;;;;;2.50;1.10;;;14.60;99.90;;;;;;4142997;28;20228;-78
2022/09/10 01:02:36;;;;;;;2.53;1.00;;;14.60;99.90;;;;;;4139424;28;20287;-78
2022/09/10 01:04:39;;;;;;;3.07;1.20;;;14.60;99.90;;;;;;4144300;28;20211;-78
2022/09/10 01:06:44;;;;;;;2.73;1.27;;;14.50;99.90;;;;;;4141574;28;20204;-78
2022/09/10 01:08:46;;;;;;;3.27;1.13;;;14.50;99.90;;;;;;4136828;28;20692;-78
2022/09/10 01:11:01;;;;;;;2.97;1.13;;;14.50;99.90;;;;;;4144877;28;20627;-78
2022/09/10 01:13:20;;;;;;;1.67;1.10;;;14.50;99.90;;;;;;4141959;28;20219;-79
2022/09/10 01:15:30;;;;;;;1.60;1.07;;;14.40;99.90;;;;;;4131264;28;20208;-78
2022/09/10 01:17:43;;;;;;;4.83;1.30;;;14.40;99.90;;;;;;4134138;28;20691;-78
2022/09/10 01:20:13;;;;;;;3.20;1.30;;;14.40;99.90;;;;;;4139279;28;20267;-78
2022/09/10 01:22:29;;;;;;;2.63;1.13;;;14.40;99.90;;;;;;4140818;28;20239;-78
2022/09/10 01:24:50;;;;;;;3.63;1.10;;;14.30;99.90;;;;;;4144964;28;20692;-79
2022/09/10 01:27:20;;;;;;;5.90;1.03;;;14.30;99.90;;;;;;4143003;28;20217;-78
2022/09/10 01:29:29;;;;;;;3.93;1.33;;;14.30;99.90;;;;;;4145484;28;20290;-78
2022/09/10 01:31:37;;;;;;;2.97;1.30;;;14.30;99.90;;;;;;4145045;28;20223;-78
2022/09/10 01:33:47;;;;;;;3.07;1.10;;;14.30;99.90;;;;;;4144652;28;20211;-78
2022/09/10 01:35:53;;;;;;;2.20;1.10;;;14.30;99.90;;;;;;4138732;28;20243;-78
2022/09/10 01:37:59;;;;;;;1.87;1.20;;;14.30;99.90;;;;;;4138085;28;20207;-79
2022/09/10 01:40:03;;;;;;;1.40;1.00;;;14.20;99.90;;;;;;4140569;28;20242;-78
2022/09/10 01:42:05;;;;;;;1.80;1.00;;;14.20;99.90;;;;;;4140743;28;20207;-78
2022/09/10 01:44:09;;;;;;;3.27;1.30;;;14.20;99.90;;;;;;4138242;28;20218;-78
2022/09/10 01:46:25;;;;;;;2.77;1.00;;;14.20;99.90;;;;;;4139914;28;20307;-78
2022/09/10 01:48:58;;;;;;;3.97;1.43;;;14.20;99.90;;;;;;4131346;28;20215;-78
2022/09/10 01:51:09;;;;;;;2.87;1.23;;;14.20;99.90;;;;;;4133884;28;20290;-78
2022/09/10 01:53:33;;;;;;;2.30;1.10;;;14.20;99.90;;;;;;4143462;28;20211;-78
2022/09/10 01:55:43;;;;;;;1.50;1.20;;;14.20;99.90;;;;;;4131636;28;20216;-78
2022/09/10 01:57:53;;;;;;;2.27;1.20;;;14.10;99.90;;;;;;4139081;28;20302;-78
2022/09/10 02:00:02;;;;;;;3.50;1.23;;;14.10;99.90;;;;;;4136229;28;20263;-79
2022/09/10 02:02:12;;;;;;;4.53;1.20;;;14.10;99.90;;;;;;4137666;28;20632;-78
2022/09/10 02:04:15;;;;;;;7.27;1.47;;;14.10;99.90;;;;;;4136217;28;20665;-79
2022/09/10 02:06:22;;;;;;;4.70;1.00;;;14.10;99.90;;;;;;4140015;28;20742;-78
2022/09/10 02:08:29;;;;;;;2.60;1.50;;;14.10;99.90;;;;;;4143208;28;20215;-78
2022/09/10 02:10:31;;;;;;;1.77;1.37;;;14.10;99.90;;;;;;4138350;28;20879;-78
2022/09/10 02:12:34;;;;;;;2.83;1.20;;;14.00;99.90;;;;;;4133608;28;20216;-78
2022/09/10 02:14:36;;;;;;;3.07;1.30;;;14.00;99.90;;;;;;4135365;28;21115;-78
2022/09/10 02:16:42;;;;;;;1.83;1.00;;;14.00;99.90;;;;;;4136258;28;20231;-78
2022/09/10 02:18:46;;;;;;;3.53;1.03;;;14.00;99.90;;;;;;4144200;28;20214;-78
2022/09/10 02:20:50;;;;;;;2.63;0.90;;;14.00;99.90;;;;;;4139248;28;20422;-78
2022/09/10 02:22:57;;;;;;;2.07;0.90;;;14.00;99.90;;;;;;4137817;28;20221;-78
2022/09/10 02:24:59;;;;;;;1.27;0.80;;;14.00;99.90;;;;;;4139358;28;20242;-78
2022/09/10 02:27:01;;;;;;;1.33;1.13;;;14.00;99.90;;;;;;4132047;28;20278;-78
2022/09/10 02:29:02;;;;;;;1.93;1.03;;;14.00;99.90;;;;;;4136836;28;20245;-78
2022/09/10 02:31:04;;;;;;;1.53;1.03;;;14.00;99.90;;;;;;4141830;28;20600;-78
2022/09/10 02:33:06;;;;;;;2.63;1.17;;;14.00;99.90;;;;;;4138010;28;20619;-78
2022/09/10 02:35:10;;;;;;;2.57;1.30;;;14.10;99.90;;;;;;4133083;28;20218;-78
2022/09/10 02:37:11;;;;;;;1.77;1.10;;;14.00;99.90;;;;;;4134693;28;20280;-78
2022/09/10 02:39:13;;;;;;;1.90;1.00;;;14.00;99.90;;;;;;4135328;28;20231;-79
2022/09/10 02:41:15;;;;;;;1.67;1.17;;;14.00;99.90;;;;;;4136820;28;20259;-78
2022/09/10 02:43:17;;;;;;;1.37;1.07;;;14.00;99.90;;;;;;4137786;28;20204;-78
2022/09/10 02:45:19;;;;;;;2.97;1.13;;;14.00;99.90;;;;;;4140119;28;20306;-79
2022/09/10 02:47:21;;;;;;;2.50;0.97;;;14.00;99.90;;;;;;4137586;28;20205;-78
2022/09/10 02:49:23;;;;;;;2.80;1.20;;;14.00;99.90;;;;;;4137014;28;20877;-79
2022/09/10 02:51:27;;;;;;;4.13;1.10;;;14.00;99.90;;;;;;4135444;28;20240;-78
2022/09/10 02:53:29;;;;;;;1.57;1.10;;;14.00;99.90;;;;;;4141030;28;20216;-78
2022/09/10 02:55:31;;;;;;;3.47;1.20;;;14.00;99.90;;;;;;4135332;28;20259;-79
2022/09/10 02:57:33;;;;;;;3.50;1.20;;;13.90;99.90;;;;;;4139369;28;20594;-78
2022/09/10 02:59:35;;;;;;;2.13;1.00;;;13.90;99.90;;;;;;4141148;28;20620;-78
2022/09/10 03:01:37;;;;;;;4.17;1.20;;;13.90;99.90;;;;;;4136238;28;20646;-78
2022/09/10 03:03:39;;;;;;;2.03;1.10;;;13.90;99.90;;;;;;4147374;28;20233;-78
2022/09/10 03:05:42;;;;;;;3.50;1.20;;;14.00;99.90;;;;;;4144298;28;20292;-78
2022/09/10 03:07:45;;;;;;;4.27;1.40;;;13.90;99.90;;;;;;4136086;28;20227;-78
2022/09/10 03:09:48;;;;;;;2.73;1.20;;;13.90;99.90;;;;;;4132451;28;20264;-78
2022/09/10 03:11:50;;;;;;;4.23;1.53;;;13.90;99.90;;;;;;4144831;28;20677;-78
2022/09/10 03:13:52;;;;;;;4.17;1.23;;;13.90;99.90;;;;;;4146202;28;20212;-78
2022/09/10 03:15:54;;;;;;;2.93;1.00;;;13.90;99.90;;;;;;4148767;28;21163;-78
2022/09/10 03:17:57;;;;;;;1.97;1.23;;;13.90;99.90;;;;;;4145044;28;20212;-78
2022/09/10 03:19:58;;;;;;;3.03;1.20;;;13.90;99.90;;;;;;4140299;28;20219;-78
2022/09/10 03:22:00;;;;;;;4.70;1.27;;;13.90;99.90;;;;;;4146310;28;20206;-78
2022/09/10 03:24:04;;;;;;;2.10;1.20;;;13.90;99.90;;;;;;4152035;28;20203;-78
2022/09/10 03:26:06;;;;;;;4.53;1.23;;;13.90;99.90;;;;;;4140362;28;20291;-78
2022/09/10 03:28:09;;;;;;;2.63;1.30;;;13.90;99.90;;;;;;4146788;28;20664;-78
2022/09/10 03:30:12;;;;;;;3.13;1.10;;;13.90;99.90;;;;;;4147106;28;20575;-78
2022/09/10 03:32:13;;;;;;;3.80;1.10;;;13.90;99.90;;;;;;4144739;28;20306;-78
2022/09/10 03:34:15;;;;;;;2.43;1.10;;;13.90;99.90;;;;;;4144155;28;20222;-78
2022/09/10 03:36:17;;;;;;;1.57;1.03;;;13.80;99.90;;;;;;4137715;28;20212;-78
2022/09/10 03:38:19;;;;;;;3.43;1.20;;;13.90;99.90;;;;;;4145230;28;20283;-79
2022/09/10 03:40:23;;;;;;;1.93;1.20;;;13.90;99.90;;;;;;4142190;28;20230;-78
2022/09/10 03:42:24;;;;;;;4.37;1.20;;;13.90;99.90;;;;;;4145467;28;20208;-78
2022/09/10 03:44:26;;;;;;;2.37;1.03;;;13.80;99.90;;;;;;4140581;28;20201;-78
2022/09/10 03:46:28;;;;;;;2.80;1.10;;;13.80;99.90;;;;;;4140968;28;20575;-78
2022/09/10 03:48:30;;;;;;;2.67;1.20;;;13.80;99.90;;;;;;4142785;28;20215;-79
2022/09/10 03:50:32;;;;;;;3.53;1.33;;;13.80;99.90;;;;;;4143454;28;20322;-80
2022/09/10 03:52:34;;;;;;;1.87;1.10;;;13.80;99.90;;;;;;4141464;28;20251;-80
2022/09/10 03:54:36;;;;;;;2.90;1.20;;;13.80;99.90;;;;;;4145002;28;20208;-80
2022/09/10 03:56:40;;;;;;;1.40;1.00;;;13.80;99.90;;;;;;4145073;28;20219;-80
2022/09/10 03:58:42;;;;;;;2.87;0.90;;;13.80;99.90;;;;;;4144542;28;20211;-80
2022/09/10 04:00:44;;;;;;;2.00;1.10;;;13.80;99.90;;;;;;4143752;28;20232;-79
2022/09/10 04:02:47;;;;;;;3.57;1.20;;;13.80;99.90;;;;;;4143525;28;20203;-79
2022/09/10 04:04:48;;;;;;;3.17;1.00;;;13.90;99.90;;;;;;4147168;28;20208;-79
2022/09/10 04:06:52;;;;;;;5.03;1.20;;;13.80;99.90;;;;;;4147414;28;20299;-79
2022/09/10 04:08:53;;;;;;;4.10;1.60;;;13.80;99.90;;;;;;4145874;28;20222;-79
2022/09/10 04:11:00;;;;;;;3.10;1.57;;;13.90;99.90;;;;;;4160825;28;20223;-79
2022/09/10 04:13:04;;;;;;;2.07;1.03;;;13.90;99.90;;;;;;4143277;28;20234;-80
2022/09/10 04:15:07;;;;;;;2.33;1.00;;;13.90;99.90;;;;;;4142148;28;20206;-79
2022/09/10 04:17:08;;;;;;;2.27;1.20;;;13.90;99.90;;;;;;4142050;28;20207;-80
2022/09/10 04:19:11;;;;;;;3.63;1.10;;;13.90;99.90;;;;;;4139015;28;20732;-79
2022/09/10 04:21:13;;;;;;;3.10;1.00;;;13.90;99.90;;;;;;4137261;28;20577;-80
2022/09/10 04:23:16;;;;;;;2.90;1.10;;;13.90;99.90;;;;;;4133761;28;20208;-80
2022/09/10 04:25:18;;;;;;;3.40;1.20;;;13.90;99.90;;;;;;4140144;28;20677;-80
2022/09/10 04:27:21;;;;;;;2.90;1.07;;;13.90;99.90;;;;;;4142534;28;20716;-80
2022/09/10 04:29:24;;;;;;;2.13;1.07;;;13.90;99.90;;;;;;4144552;28;20260;-80
2022/09/10 04:31:26;;;;;;;3.43;1.40;;;13.90;99.90;;;;;;4138604;28;20221;-78
2022/09/10 04:33:27;;;;;;;2.50;1.27;;;13.90;99.90;;;;;;4137074;28;20216;-78
2022/09/10 04:35:29;;;;;;;1.60;1.00;;;13.90;99.90;;;;;;4136451;28;20212;-78
2022/09/10 04:37:31;;;;;;;1.53;1.20;;;13.90;99.90;;;;;;4142048;28;20215;-79
2022/09/10 04:39:33;;;;;;;2.33;1.60;;;13.80;99.90;;;;;;4142267;28;20243;-78
2022/09/10 04:41:35;;;;;;;3.10;1.30;;;13.80;99.90;;;;;;4147994;28;20501;-78
2022/09/10 04:43:37;;;;;;;2.27;1.13;;;13.80;99.90;;;;;;4154598;28;20208;-81
2022/09/10 04:45:41;;;;;;;2.07;1.10;;;13.80;99.90;;;;;;4154783;28;20204;-78
2022/09/10 04:47:45;;;;;;;1.23;1.13;;;13.80;99.90;;;;;;4154637;28;20215;-79
2022/09/10 04:49:47;;;;;;;2.17;1.43;;;13.80;99.90;;;;;;4151199;28;20761;-78
2022/09/10 04:51:49;;;;;;;3.87;1.37;;;13.80;99.90;;;;;;4139929;28;20633;-78
2022/09/10 04:53:50;;;;;;;1.30;1.17;;;13.80;99.90;;;;;;4138043;28;20295;-78
2022/09/10 04:55:53;;;;;;;2.37;1.40;;;13.80;99.90;;;;;;4139125;28;20207;-78
2022/09/10 04:57:55;;;;;;;1.87;1.20;;;13.80;99.90;;;;;;4148177;28;20274;-79
2022/09/10 04:59:56;;;;;;;3.30;1.30;;;13.80;99.90;;;;;;4141952;28;20819;-80
2022/09/10 05:01:59;;;;;;;6.17;1.30;;;13.80;99.90;;;;;;4136624;28;20204;-79
2022/09/10 05:04:02;;;;;;;1.30;1.20;;;13.80;99.90;;;;;;4146109;28;20218;-79
2022/09/10 05:06:04;;;;;;;1.50;1.20;;;13.80;99.90;;;;;;4143800;28;20623;-80
2022/09/10 05:08:06;;;;;;;1.47;1.10;;;13.80;99.90;;;;;;4145019;28;20736;-79
2022/09/10 05:10:09;;;;;;;1.43;1.10;;;13.80;99.90;;;;;;4144156;28;20321;-79
2022/09/10 05:12:12;;;;;;;1.37;1.20;;;13.80;99.90;;;;;;4139909;28;20264;-79
2022/09/10 05:14:14;;;;;;;1.80;1.00;;;13.90;99.90;;;;;;4134191;28;20218;-78
2022/09/10 05:16:15;;;;;;;2.03;1.10;;;13.80;99.90;;;;;;4146664;28;20204;-79
2022/09/10 05:18:19;;;;;;;2.60;1.20;;;13.90;99.90;;;;;;4141396;28;20208;-78
2022/09/10 05:20:21;;;;;;;1.50;1.00;;;13.90;99.90;;;;;;4144344;28;20608;-80
2022/09/10 05:22:23;;;;;;;3.20;1.43;;;13.90;99.90;;;;;;4148473;28;20206;-79
2022/09/10 05:24:26;;;;;;;1.63;1.03;;;13.90;99.90;;;;;;4143654;28;20238;-78
2022/09/10 05:26:28;;;;;;;3.03;1.27;;;13.90;99.90;;;;;;4144700;28;20218;-78
2022/09/10 05:28:30;;;;;;;1.47;1.00;;;14.00;99.90;;;;;;4146436;28;20242;-80
2022/09/10 05:30:32;;;;;;;1.60;1.20;;;14.00;99.90;;;;;;4146639;28;20310;-80
2022/09/10 05:32:34;;;;;;;3.23;1.17;;;14.00;99.90;;;;;;4145194;28;20258;-79
2022/09/10 05:34:38;;;;;;;3.23;1.30;;;14.00;99.90;;;;;;4144856;28;20219;-79
2022/09/10 05:36:40;;;;;;;4.67;1.20;;;14.10;99.90;;;;;;4135342;28;20686;-79
2022/09/10 05:38:43;;;;;;;2.17;1.50;;;14.10;99.90;;;;;;4137675;28;20211;-80
2022/09/10 05:40:45;;;;;;;2.53;1.13;;;14.10;99.90;;;;;;4141946;28;20282;-79
2022/09/10 05:42:47;;;;;;;2.00;1.00;;;14.20;99.90;;;;;;4144496;28;20216;-79
2022/09/10 05:44:50;;;;;;;1.97;1.20;;;14.20;99.90;;;;;;4137313;28;20214;-80
2022/09/10 05:46:52;;;;;;;2.67;1.33;;;14.20;99.90;;;;;;4137936;28;20209;-80
2022/09/10 05:48:54;;;;;;;1.53;1.10;;;14.30;99.90;;;;;;4137060;28;20210;-79
2022/09/10 05:50:57;;;;;;;1.90;1.00;;;14.30;99.90;;;;;;4144975;28;20204;-80
2022/09/10 05:53:00;;;;;;;1.63;1.10;;;14.30;99.90;;;;;;4143594;28;20320;-80
2022/09/10 05:55:02;;;;;;;1.90;1.10;;;14.30;99.90;;;;;;4146637;28;20239;-80
2022/09/10 05:57:04;;;;;;;1.50;0.90;;;14.40;99.90;;;;;;4137158;28;20215;-80
2022/09/10 05:59:06;;;;;;;2.57;1.10;;;14.40;99.90;;;;;;4139282;28;20243;-80
2022/09/10 06:01:07;;;;;;;2.03;1.00;;;14.40;99.90;;;;;;4142899;28;20214;-80
2022/09/10 06:03:15;;;;;;;3.77;1.17;;;14.50;99.90;;;;;;4140091;28;20753;-79
2022/09/10 06:05:22;;;;;;;2.47;1.00;;;14.50;99.90;;;;;;4142998;28;20200;-79
2022/09/10 06:07:25;;;;;;;3.33;1.20;;;14.60;99.90;;;;;;4139783;28;20787;-79
2022/09/10 06:09:27;;;;;;;2.63;0.90;;;14.60;99.90;;;;;;4141605;28;20233;-80
2022/09/10 06:11:29;;;;;;;1.63;0.90;;;14.70;99.90;;;;;;4140404;28;20209;-79
2022/09/10 06:13:31;;;;;;;1.70;0.93;;;14.70;99.90;;;;;;4141202;28;20213;-79
2022/09/10 06:15:35;;;;;;;2.00;1.10;;;14.80;99.90;;;;;;4143673;28;20505;-80
2022/09/10 06:17:37;;;;;;;1.93;1.40;;;14.80;99.90;;;;;;4146403;28;20225;-78
2022/09/10 06:19:39;;;;;;;3.67;1.27;;;14.80;99.90;;;;;;4148933;28;20253;-79
2022/09/10 06:21:41;;;;;;;1.90;1.10;;;14.90;99.90;;;;;;4148113;28;20213;-79
2022/09/10 06:23:45;;;;;;;1.70;1.40;;;14.90;99.90;;;;;;4147514;28;20773;-79
2022/09/10 06:25:47;;;;;;;1.73;1.17;;;15.00;99.90;;;;;;4139307;28;20703;-79
2022/09/10 06:27:49;;;;;;;2.67;1.07;;;15.00;99.90;;;;;;4143111;28;20212;-79
2022/09/10 06:29:51;;;;;;;5.03;1.17;;;15.00;99.90;;;;;;4142564;28;20305;-79
2022/09/10 06:31:53;;;;;;;1.63;0.80;;;15.00;99.90;;;;;;4142307;28;20222;-79
2022/09/10 06:33:54;;;;;;;3.23;0.93;;;15.00;99.90;;;;;;4139375;28;20222;-79
2022/09/10 06:35:58;;;;;;;1.50;0.97;;;15.00;99.90;;;;;;4131868;28;20268;-79
2022/09/10 06:38:00;;;;;;;1.17;1.07;;;15.10;99.90;;;;;;4140567;28;20216;-79
2022/09/10 06:40:04;;;;;;;1.53;1.20;;;15.10;99.90;;;;;;4137107;28;20575;-79
2022/09/10 06:42:06;;;;;;;1.40;0.90;;;15.10;99.90;;;;;;4137348;28;20294;-79
2022/09/10 06:44:08;;;;;;;1.67;0.90;;;15.20;99.90;;;;;;4140103;28;20220;-79
2022/09/10 06:46:13;;;;;;;1.47;0.90;;;15.20;99.90;;;;;;4140112;28;20257;-79
2022/09/10 06:48:16;;;;;;;2.30;0.90;;;15.20;99.90;;;;;;4140216;28;20287;-79
2022/09/10 06:50:18;;;;;;;1.40;0.87;;;15.30;99.90;;;;;;4145853;28;20890;-79
2022/09/10 06:52:20;;;;;;;1.63;0.97;;;15.30;99.90;;;;;;4143090;28;20207;-79
2022/09/10 06:54:22;;;;;;;1.17;0.90;;;15.40;99.90;;;;;;4146401;28;20261;-79
2022/09/10 06:56:26;;;;;;;1.37;0.80;;;15.40;99.90;;;;;;4145217;28;20262;-79
2022/09/10 06:58:30;;;;;;;1.13;0.93;;;15.50;99.90;;;;;;4147386;28;20241;-79
2022/09/10 07:00:34;;;;;;;1.17;0.80;;;15.50;99.90;;;;;;4144829;28;20223;-78
2022/09/10 07:02:39;;;;;;;2.63;0.90;;;15.60;99.90;;;;;;4137094;28;20212;-80
2022/09/10 07:04:44;;;;;;;0.90;0.80;;;15.60;99.90;;;;;;4145415;28;20213;-80
2022/09/10 07:06:46;;;;;;;2.53;0.93;;;15.70;99.90;;;;;;4153624;28;20676;-80
2022/09/10 07:08:48;;;;;;;1.53;1.00;;;15.70;99.90;;;;;;4145945;28;20198;-80
2022/09/10 07:10:50;;;;;;;1.63;0.80;;;15.80;99.90;;;;;;4138424;28;20224;-80
2022/09/10 07:12:53;;;;;;;4.27;0.97;;;15.80;99.90;;;;;;4145854;28;20231;-80
2022/09/10 07:14:55;;;;;;;1.93;0.83;;;15.80;99.90;;;;;;4144423;28;20298;-79
2022/09/10 07:16:56;;;;;;;2.13;1.00;;;15.90;99.90;;;;;;4149345;28;20208;-80
2022/09/10 07:19:00;;;;;;;1.73;0.80;;;15.90;99.90;;;;;;4156949;28;20208;-80
2022/09/10 07:21:08;;;;;;;1.53;0.83;;;15.90;99.90;;;;;;4144249;28;20199;-80
2022/09/10 07:23:10;;;;;;;2.50;0.93;;;16.00;99.90;;;;;;4149670;28;20203;-80
2022/09/10 07:25:12;;;;;;;1.37;0.83;;;16.00;99.90;;;;;;4146553;28;20660;-80
2022/09/10 07:27:14;;;;;;;2.07;1.20;;;16.10;99.90;;;;;;4153663;28;20209;-80
2022/09/10 07:29:17;;;;;;;1.33;0.73;;;16.10;99.90;;;;;;4152587;28;20294;-80
2022/09/10 07:31:21;;;;;;;2.60;1.30;;;16.20;99.90;;;;;;4154328;28;20202;-80
2022/09/10 07:33:23;;;;;;;3.77;1.57;;;16.20;99.90;;;;;;4150406;28;20227;-80
2022/09/10 07:35:25;;;;;;;6.80;3.00;;;16.30;99.90;;;;;;4145286;28;20635;-80
2022/09/10 07:37:27;;;;;;;4.93;2.03;;;16.40;99.90;;;;;;4146326;28;20290;-80
2022/09/10 07:39:29;;;;;;;2.67;1.37;;;16.50;99.90;;;;;;4138912;28;20579;-80
2022/09/10 07:41:34;;;;;;;2.50;1.30;;;16.50;99.90;;;;;;4146482;28;20242;-81
2022/09/10 07:43:37;;;;;;;2.33;0.93;;;16.60;99.90;;;;;;4147021;28;20200;-79
2022/09/10 07:45:41;;;;;;;1.87;0.90;;;16.60;99.90;;;;;;4147553;28;20211;-81
2022/09/10 07:47:44;;;;;;;4.07;0.97;;;16.70;99.90;;;;;;4145565;28;20208;-79
2022/09/10 07:49:46;;;;;;;1.70;1.00;;;16.70;99.90;;;;;;4145119;28;20227;-79
2022/09/10 07:51:48;;;;;;;2.43;0.83;;;16.80;99.90;;;;;;4143500;28;20582;-79
2022/09/10 07:53:54;;;;;;;1.47;0.80;;;16.80;99.90;;;;;;4141942;28;20244;-80
2022/09/10 07:56:00;;;;;;;1.83;0.70;;;16.90;99.90;;;;;;4140443;28;20707;-80
2022/09/10 07:58:02;;;;;;;1.80;0.73;;;16.90;99.90;;;;;;4154249;28;20235;-80
2022/09/10 08:00:13;;;;;;;2.43;1.23;;;16.90;99.90;;;;;;4149020;28;20219;-81
2022/09/10 08:02:16;;;;;;;2.70;1.00;;;17.00;99.90;;;;;;4149608;28;20226;-80
2022/09/10 08:04:18;;;;;;;2.57;0.80;;;17.00;99.90;;;;;;4139368;28;20231;-78
2022/09/10 08:06:20;;;;;;;2.67;1.20;;;17.00;99.90;;;;;;4143561;28;20275;-78
2022/09/10 08:08:29;;;;;;;3.60;1.00;;;17.00;99.90;;;;;;4142684;28;20290;-80
2022/09/10 08:10:31;;;;;;;2.90;1.20;;;17.10;99.90;;;;;;4143353;28;20227;-81
2022/09/10 08:12:33;;;;;;;1.70;0.80;;;17.10;99.90;;;;;;4139684;28;20244;-81
2022/09/10 08:14:36;;;;;;;0.93;0.67;;;17.10;99.90;;;;;;4144947;28;20251;-78
2022/09/10 08:16:38;;;;;;;3.13;0.97;;;17.10;99.90;;;;;;4145714;28;20585;-79
2022/09/10 08:18:42;;;;;;;2.10;0.90;;;17.10;99.90;;;;;;4146701;28;20207;-79
2022/09/10 08:20:44;;;;;;;3.87;0.90;;;17.20;99.90;;;;;;4145245;28;20235;-80
2022/09/10 08:22:49;;;;;;;2.17;0.87;;;17.20;99.90;;;;;;4145474;28;20307;-80
2022/09/10 08:24:50;;;;;;;1.73;0.83;;;17.20;99.90;;;;;;4156754;28;20208;-79
2022/09/10 08:26:53;;;;;;;2.17;0.87;;;17.30;99.90;;;;;;4143788;28;20222;-79
2022/09/10 08:28:56;;;;;;;2.67;1.00;;;17.30;99.90;;;;;;4138064;28;20216;-78
2022/09/10 08:31:00;;;;;;;2.27;1.10;;;17.40;99.90;;;;;;4152150;28;20298;-78
2022/09/10 08:33:02;;;;;;;3.47;0.90;;;17.40;99.90;;;;;;4138783;28;20601;-80
2022/09/10 08:35:06;;;;;;;4.83;0.83;;;17.40;99.90;;;;;;4141909;28;20220;-78
2022/09/10 08:37:08;;;;;;;3.37;0.70;;;17.40;99.90;;;;;;4139602;28;20217;-78
2022/09/10 08:39:11;;;;;;;1.50;0.70;;;17.40;99.90;;;;;;4143687;28;20236;-78
2022/09/10 08:41:27;;;;;;;1.80;1.00;;;17.50;99.90;;;;;;4140170;28;20212;-79
2022/09/10 08:43:35;;;;;;;4.33;0.90;;;17.50;99.90;;;;;;4146721;28;20211;-79
2022/09/10 08:45:38;;;;;;;2.57;1.00;;;17.50;99.90;;;;;;4143323;28;20880;-79
2022/09/10 08:47:53;;;;;;;2.80;0.87;;;17.50;99.90;;;;;;4140867;28;20207;-81
2022/09/10 08:50:00;;;;;;;2.97;0.80;;;17.50;99.90;;;;;;4147130;28;20311;-81
2022/09/10 08:52:13;;;;;;;2.43;1.20;;;17.60;99.90;;;;;;4136465;28;20376;-80
2022/09/10 08:54:19;;;;;;;1.57;1.00;;;17.60;99.90;;;;;;4136918;28;20653;-80
2022/09/10 08:56:23;;;;;;;6.47;1.10;;;17.80;99.90;;;;;;4143337;28;20232;-82
2022/09/10 08:58:29;;;;;;;2.50;1.50;;;17.80;99.90;;;;;;4136689;28;20223;-84
2022/09/10 09:00:33;;;;;;;3.57;1.30;;;17.80;99.90;;;;;;4141245;28;20225;-83
2022/09/10 09:02:45;;;;;;;2.60;1.00;;;17.80;99.90;;;;;;4142515;28;20296;-80
2022/09/10 09:04:53;;;;;;;1.60;0.73;;;17.90;99.90;;;;;;4146880;28;20213;-83
2022/09/10 09:06:59;;;;;;;1.03;0.70;;;17.80;99.90;;;;;;4139584;28;20674;-84
2022/09/10 09:09:03;;;;;;;1.60;0.90;;;17.90;99.90;;;;;;4138232;28;20211;-83
2022/09/10 09:11:13;;;;;;;1.83;0.90;;;17.90;99.90;;;;;;4140348;28;20260;-83
2022/09/10 09:13:38;;;;;;;3.80;0.70;;;18.00;99.90;;;;;;4140745;28;20213;-81
2022/09/10 09:15:50;;;;;;;2.70;0.90;;;18.00;99.90;;;;;;4149658;28;20207;-81
2022/09/10 09:18:03;;;;;;;3.10;0.90;;;18.00;99.90;;;;;;4151693;28;20211;-80
2022/09/10 09:20:14;;;;;;;2.33;0.80;;;18.10;99.90;;;;;;4145171;28;20245;-81
2022/09/10 09:22:19;;;;;;;1.73;0.80;;;18.20;99.90;;;;;;4145454;28;20232;-81
2022/09/10 09:24:42;;;;;;;3.80;0.70;;;18.20;99.90;;;;;;4139474;28;20242;-84
2022/09/10 09:26:46;;;;;;;1.53;0.63;;;18.10;99.90;;;;;;4145612;28;20212;-83
2022/09/10 09:28:51;;;;;;;3.67;0.90;;;18.30;99.90;;;;;;4144175;28;20211;-81
2022/09/10 09:30:56;;;;;;;1.63;1.00;;;18.30;99.90;;;;;;4137729;28;20212;-79
2022/09/10 09:33:03;;;;;;;1.77;0.73;;;18.30;99.90;;;;;;4137530;28;20216;-80
2022/09/10 09:35:17;;;;;;;1.33;0.60;;;18.30;99.90;;;;;;4138848;28;20300;-79
2022/09/10 09:37:22;;;;;;;2.93;1.00;;;18.20;99.90;;;;;;4139419;28;20211;-79
2022/09/10 09:39:32;;;;;;;2.10;0.63;;;18.20;99.90;;;;;;4139299;28;20302;-82
2022/09/10 09:41:39;;;;;;;3.33;1.00;;;18.20;99.90;;;;;;4144382;28;20205;-82
2022/09/10 09:43:54;;;;;;;1.17;0.60;;;18.30;99.90;;;;;;4139867;28;20205;-80
2022/09/10 09:45:56;;;;;;;1.20;0.70;;;18.30;99.90;;;;;;4138434;28;20222;-81
2022/09/10 09:47:59;;;;;;;2.67;0.80;;;18.40;99.90;;;;;;4144022;28;20217;-81
2022/09/10 09:50:00;;;;;;;3.93;0.93;;;18.40;99.90;;;;;;4141856;28;20238;-79
2022/09/10 09:52:13;;;;;;;2.47;0.90;;;18.40;99.90;;;;;;4134437;28;20278;-81
2022/09/10 09:54:19;;;;;;;1.57;0.70;;;18.50;99.90;;;;;;4141957;28;20717;-80
2022/09/10 09:56:27;;;;;;;2.77;1.03;;;18.50;99.90;;;;;;4139626;28;20213;-79
2022/09/10 09:58:35;;;;;;;2.70;0.90;;;18.50;99.90;;;;;;4141478;28;20288;-79
2022/09/10 10:00:38;;;;;;;1.10;0.73;;;18.60;99.90;;;;;;4138366;28;20215;-83
2022/09/10 10:02:40;;;;;;;1.20;0.80;;;18.70;99.90;;;;;;4145181;28;20214;-83
2022/09/10 10:04:54;;;;;;;1.60;0.93;;;18.70;99.90;;;;;;4144243;28;20202;-79
2022/09/10 10:06:59;;;;;;;1.03;0.93;;;18.90;99.90;;;;;;4141523;28;20233;-77
2022/09/10 10:09:04;;;;;;;1.20;0.70;;;18.90;99.90;;;;;;4144439;28;20242;-80
2022/09/10 10:11:08;;;;;;;2.37;0.97;;;19.00;99.90;;;;;;4137763;28;20238;-80
2022/09/10 10:13:21;;;;;;;1.27;0.70;;;19.10;99.90;;;;;;4141792;28;20250;-80
2022/09/10 10:15:35;;;;;;;1.10;0.60;;;19.20;99.90;;;;;;4139095;28;20222;-84
2022/09/10 10:17:42;;;;;;;0.97;0.70;;;19.30;99.90;;;;;;4132080;28;20211;-81
2022/09/10 10:19:55;;;;;;;2.00;0.80;;;19.30;99.90;;;;;;4140318;28;20269;-81
2022/09/10 10:22:10;;;;;;;4.13;0.93;;;19.50;99.90;;;;;;4139658;28;20204;-81
2022/09/10 10:24:30;;;;;;;1.03;0.70;;;19.50;99.90;;;;;;4147958;28;20215;-80
2022/09/10 10:26:34;;;;;;;1.90;0.90;;;19.50;99.90;;;;;;4141052;28;20297;-84
2022/09/10 10:28:37;;;;;;;3.03;0.90;;;19.50;99.90;;;;;;4145078;28;20209;-78
2022/09/10 10:30:40;;;;;;;1.73;0.90;;;19.50;99.90;;;;;;4141884;28;20751;-78
2022/09/10 10:32:46;;;;;;;3.73;1.07;;;19.50;99.90;;;;;;4140935;28;20678;-78
2022/09/10 10:34:55;;;;;;;1.63;0.90;;;19.50;99.90;;;;;;4141976;28;20254;-78
2022/09/10 10:37:06;;;;;;;1.37;0.80;;;19.50;99.90;;;;;;4140372;28;20212;-77
2022/09/10 10:39:15;;;;;;;1.90;0.97;;;19.60;99.90;;;;;;4140266;28;20297;-78
2022/09/10 10:41:53;;;;;;;3.57;0.87;;;19.70;99.90;;;;;;4142692;28;20212;-78
2022/09/10 10:44:12;;;;;;;3.70;1.30;;;19.70;99.90;;;;;;4139449;28;20624;-80
2022/09/10 10:46:20;;;;;;;5.43;2.00;;;19.70;99.90;;;;;;4143080;28;20579;-77
2022/09/10 10:48:34;;;;;;;8.13;4.50;;;19.80;99.90;;;;;;4138356;28;20203;-81
2022/09/10 10:50:44;;;;;;;4.57;2.40;;;19.80;99.90;;;;;;4140755;28;20960;-79